Terminal Aerodrome Forecast
Issued by NWS

Home | Current Version | Previous Version | Text Only | Print | Product List | Glossary On
Versions: 1 2 3 4 5 6 7 8 9 10 11 12 13 14
298
FTUS46 KMTR 041244 AAA
TAFOAK
TAF AMD
KOAK 041244Z 0413/0518 28006KT P6SM SCT010
      TEMPO 0413/0416 BKN010
     FM041700 26008KT P6SM VCSH SCT011 BKN080
     FM042100 28013KT P6SM VCSH FEW012 BKN100
     FM050300 28009KT P6SM BKN012 OVC100
     FM050900 24009KT P6SM BKN010 OVC080=

USA.gov is the U.S. government's official web portal to all federal, state and local government web resources and services.